^^

Nearby METAR Reports

 

LIRH - Frosinone (it-Af, Italy
Distance from station: SO 5km
Dati ricevuti: 21/05/2019 19:55
Non Attivo
Molto nuvoloso
Molto nuvoloso
 Vento da SSO
Vento: SSO 7 km/h
Temperatura: 18°C
P.to Rugiada: 12°C
Umidità: 68%
Barometro: 1015 hPa
Clouds: Molto nuvoloso
Visibility: 8 km
Cloud details: Molto nuvoloso 1067 m
2019/05/21 17:55 LIRH 211755Z 21004KT 8000 BKN035 18/12 Q1015
LIRL - Latina (it-Afb), Italy
Distance from station: OSO 40km
Dati ricevuti: 21/05/2019 19:55
Non Attivo
Parz. nuvoloso
Parz. nuvoloso
 Vento da S
Vento: S 6 km/h
Temperatura: 17°C
P.to Rugiada: 13°C
Umidità: 77%
Barometro: 1015 hPa
Clouds: Parz. nuvoloso
Visibility: 10 km
Cloud details: Few Clouds 610 m
Parz. nuvoloso 1372 m
2019/05/21 17:55 LIRL 211755Z 18003KT 9999 FEW020 SCT045 17/13 Q1015
 
LIRG - Guidonia (it-Afb, Italy
Distance from station: NO 63km
Dati ricevuti: 21/05/2019 19:55
Non Attivo
Parz. nuvoloso
Parz. nuvoloso
 Vento da S
Vento: S 7 km/h
Temperatura: 18°C
P.to Rugiada: 12°C
Umidità: 68%
Barometro: 1016 hPa
Clouds: Parz. nuvoloso
Visibility: 10 km
Cloud details: Few Clouds 914 m
Parz. nuvoloso 1219 m
2019/05/21 17:55 LIRG 211755Z 19004KT 9999 FEW030 SCT040 18/12 Q1016
LIRA - Ciampino(It-Afb/, Italy
Distance from station: ONO 64km
Dati ricevuti: 22/05/2019 03:20
Sereno
Sereno
 Vento da SE
Vento: SE 9 km/h
Temperatura: 14°C
P.to Rugiada: 8°C
Umidità: 67%
Barometro: 1016 hPa
Summary: Sereno
Visibility: greater than 10 km
2019/05/22 01:20 LIRA 220120Z 14005KT CAVOK 14/08 Q1016
 
LIRU - Roma/Urbe (it-Af, Italy
Distance from station: ONO 76km
Dati ricevuti: 21/05/2019 19:50
Non Attivo
Few Clouds
Few Clouds
 Vento da SSO
Vento: SSO 11 km/h
Temperatura: 18°C
P.to Rugiada: 12°C
Umidità: 68%
Barometro: 1015 hPa
Clouds: Few Clouds
Visibility: 10 km
Cloud details: Few Clouds 914 m
2019/05/21 17:50 LIRU 211750Z 21006KT 9999 FEW030 18/12 Q1015
LIRE - Pratica Di Mare(, Italy
Distance from station: O 77km
Dati ricevuti: 22/05/2019 02:55
Sereno
Sereno
 Vento da E
Vento: E 96 km/h
Temperatura: 14°C
P.to Rugiada: 12°C
Umidità: 88%
Barometro: 1016 hPa
Summary: Sereno
Visibility: greater than 10 km
2019/05/22 00:55 LIRE 220055Z 10052KT CAVOK 14/12 Q1016
 
LIQN - Rieti, Italy
Distance from station: NNO 92km
Dati ricevuti: 21/05/2019 19:50
Non Attivo
Parz. nuvoloso
Parz. nuvoloso
 Vento da varies
Vento: varies 6 km/h
Temperatura: 15°C
P.to Rugiada: 11°C
Umidità: 77%
Barometro: 1015 hPa
Clouds: Parz. nuvoloso
Visibility: 10 km
Cloud details: Parz. nuvoloso 914 m
2019/05/21 17:50 LIQN 211750Z VRB03KT 9999 SCT030 15/11 Q1015
LIRK - Terminillo, Italy
Distance from station: NNO 93km
Dati ricevuti: 22/05/2019 02:55

 Vento da varies
Vento: varies 7 km/h
Temperatura: 3°C
Temperatura del Vento: 1°C
P.to Rugiada: 3°C
Umidità: 100%
Barometro: 1018 hPa
2019/05/22 00:55 LIRK 220055Z AUTO VRB04KT //// 03/03 Q1018
 
LIRF - Roma/Fiumicino, Italy
Distance from station: O 94km
Dati ricevuti: 22/05/2019 03:20
Sereno
Sereno
 Vento da SE
Vento: SE 11 km/h
Temperatura: 14°C
P.to Rugiada: 13°C
Umidità: 94%
Barometro: 1016 hPa
Summary: Sereno
Visibility: greater than 10 km
2019/05/22 01:20 LIRF 220120Z 14006KT CAVOK 14/13 Q1016 NOSIG
LIRM - Grazzanise (it-A, Italy
Distance from station: SE 94km
Dati ricevuti: 22/05/2019 02:55
Parz. nuvoloso
Parz. nuvoloso
 Vento da SE
Vento: SE 4 km/h
Temperatura: 14°C
P.to Rugiada: 12°C
Umidità: 88%
Barometro: 1017 hPa
Clouds: Parz. nuvoloso
Visibility: 10 km
Cloud details: Parz. nuvoloso 305 m
2019/05/22 00:55 LIRM 220055Z 13002KT 9999 SCT010 14/12 Q1017
 
LIBP - Pescara, Italy
Distance from station: NE 108km
Dati ricevuti: 22/05/2019 02:50
Sereno
Sereno
 Vento da SO
Vento: SO 19 km/h
Temperatura: 18°C
P.to Rugiada: 8°C
Umidità: 52%
Barometro: 1014 hPa
Clouds: Sereno
Visibility: 10 km
2019/05/22 00:50 LIBP 220050Z AUTO 22010KT 9999 NCD 18/08 Q1014
LIRN - Napoli/Capodichino, Italy
Distance from station: SE 120km
Dati ricevuti: 22/05/2019 03:20
Few Clouds
Few Clouds
 Vento da varies
Vento: varies 2 km/h
Temperatura: 15°C
P.to Rugiada: 13°C
Umidità: 88%
Barometro: 1017 hPa
Clouds: Few Clouds
Visibility: 10 km
Cloud details: Few Clouds 914 m
2019/05/22 01:20 LIRN 220120Z VRB01KT 9999 FEW030 15/13 Q1017 NOSIG
 
LIRV - Viterbo (it-Mil), Italy
Distance from station: NO 133km
Dati ricevuti: 21/05/2019 20:55
Non Attivo
Parz. nuvoloso
Parz. nuvoloso
 Vento da varies
Vento: varies 0 km/h
Temperatura: 14°C
P.to Rugiada: 12°C
Umidità: 88%
Barometro: 1014 hPa
Clouds: Parz. nuvoloso
Visibility: 10 km
Cloud details: Parz. nuvoloso 549 m
2019/05/21 18:55 LIRV 211855Z /////KT 9999 SCT018 14/12 Q1014
LIQC - Capri, Italy
Distance from station: SSE 145km
Dati ricevuti: 22/05/2019 02:55
Sereno
Sereno
 Vento da calm
Vento: Calma
Temperatura: 15°C
P.to Rugiada: 13°C
Umidità: 88%
Barometro: 1018 hPa
Summary: Sereno
Visibility: greater than 10 km
2019/05/22 00:55 LIQC 220055Z 00000KT CAVOK 15/13 Q1018 RMK SKC QUK / QUL / VIS MAR 20 KM VIS MIN 9999
 
LIRT - Trevico, Italy
Distance from station: ESE 172km
Dati ricevuti: 21/05/2019 19:55
Non Attivo
Parz. nuvoloso
Parz. nuvoloso
 Vento da O
Vento: O 20 km/h, Raffica: 39 km/h
Temperatura: 11°C
P.to Rugiada: 2°C
Umidità: 54%
Barometro: 1017 hPa
Clouds: Parz. nuvoloso
Visibility: 10 km
Cloud details: Parz. nuvoloso 244 m
2019/05/21 17:55 LIRT 211755Z 26011G21KT 190V320 9999 SCT008 11/02 Q1017
LIRZ - Perugia, Italy
Distance from station: NNO 172km
Dati ricevuti: 22/05/2019 02:50
Molto nuvoloso
Molto nuvoloso
 Vento da SSE
Vento: SSE 7 km/h
Temperatura: 12°C
P.to Rugiada: 10°C
Umidità: 88%
Barometro: 1016 hPa
Clouds: Molto nuvoloso
Visibility: 10 km
Cloud details: Molto nuvoloso 1219 m
Molto nuvoloso 1615 m
2019/05/22 00:50 LIRZ 220050Z AUTO 15004KT 9999 BKN040/// BKN053/// 12/10 Q1016
 
LIRI - Pontecagnano (af, Italy
Distance from station: SE 177km
Dati ricevuti: 21/05/2019 16:50
Non Attivo
Few Clouds
Few Clouds
 Vento da SSO
Vento: SSO 24 km/h
Temperatura: 19°C
P.to Rugiada: 15°C
Umidità: 78%
Barometro: 1017 hPa
Clouds: Few Clouds
Visibility: 10 km
Cloud details: Few Clouds 914 m
2019/05/21 14:50 LIRI 211450Z 20013KT 9999 FEW030 19/15 Q1017
LIBF - Foggia/Gino Lisa, Italy
Distance from station: E 183km
Dati ricevuti: 21/05/2019 17:50
Non Attivo
Sereno
Sereno
 Vento da OSO
Vento: OSO 30 km/h
Temperatura: 22°C
P.to Rugiada: 8°C
Umidità: 41%
Barometro: 1013 hPa
Summary: Sereno
Visibility: greater than 10 km
2019/05/21 15:50 LIBF 211550Z 25016KT 220V280 CAVOK 22/08 Q1013
 
LIQO - Monte Argentario, Italy
Distance from station: ONO 195km
Dati ricevuti: 21/05/2019 19:55
Non Attivo
Nebbia
Nebbia
 Vento da SE
Vento: SE 20 km/h
Temperatura: 13°C
P.to Rugiada: 12°C
Umidità: 94%
Barometro: 1013 hPa
Summary: Nebbia
Visibility: 0 km
2019/05/21 17:55 LIQO 211755Z 14011KT 0100 FG VV/// 13/12 Q1013
LIBA - Amendola (it-Afb, Italy
Distance from station: E 198km
Dati ricevuti: 22/05/2019 02:55
Few Clouds
Few Clouds
 Vento da O
Vento: O 11 km/h
Temperatura: 13°C
P.to Rugiada: 13°C
Umidità: 100%
Barometro: 1014 hPa
Clouds: Few Clouds
Visibility: 10 km
Cloud details: Few Clouds 1219 m
2019/05/22 00:55 LIBA 220055Z 26006KT 9999 FEW040 13/13 Q1014
 
LIBN - Lecce (it-Afb), Italy
Dati ricevuti: 22/05/2019 02:55
Sereno
Sereno
 Vento da SO
Vento: SO 4 km/h
Temperatura: 12°C
P.to Rugiada: 11°C
Umidità: 94%
Barometro: 1016 hPa
Summary: Sereno
Visibility: greater than 10 km
2019/05/22 00:55 LIBN 220055Z 23002KT CAVOK 12/11 Q1016
LIPY - Ancona-Falconara, Italy
Dati ricevuti: 22/05/2019 02:50
Sereno
Sereno
 Vento da varies
Vento: varies 4 km/h
Temperatura: 12°C
P.to Rugiada: 11°C
Umidità: 94%
Barometro: 1013 hPa
Clouds: Sereno
Visibility: 10 km
2019/05/22 00:50 LIPY 220050Z AUTO VRB02KT 9999 NCD 12/11 Q1013
 
LICJ - Palermo-Punta Raisi, Italy
Dati ricevuti: 22/05/2019 03:20
Sereno
Sereno
 Vento da SO
Vento: SO 11 km/h
Temperatura: 16°C
P.to Rugiada: 9°C
Umidità: 63%
Barometro: 1017 hPa
Summary: Sereno
Visibility: greater than 10 km
2019/05/22 01:20 LICJ 220120Z 22006KT CAVOK 16/09 Q1017
LIEB - Capo Bellavista, Italy
Dati ricevuti: 22/05/2019 02:55
Sereno
Sereno
 Vento da NO
Vento: NO 22 km/h
Temperatura: 16°C
P.to Rugiada: 2°C
Umidità: 39%
Barometro: 1015 hPa
Summary: Sereno
Visibility: greater than 10 km
2019/05/22 00:55 LIEB 220055Z 31012KT CAVOK 16/02 Q1015 RMK SKC QUK / QUL / VIS MAR 30 KM MON INVIS VIS MIN 9999
 
LIEC - Capo Carbonara, Italy
Dati ricevuti: 22/05/2019 01:55
Non Attivo
Sereno
Sereno
 Vento da O
Vento: O 17 km/h
Temperatura: 18°C
P.to Rugiada: 9°C
Umidità: 56%
Barometro: 1016 hPa
Summary: Sereno
Visibility: greater than 10 km
2019/05/21 23:55 LIEC 212355Z 28009KT CAVOK 18/09 Q1016 RMK QUK / QUL / VIS MAR 20 KM VIS MIN 9999
LIED - Cagliari-Decimomannu(It-A, Italy
Dati ricevuti: 22/05/2019 02:55
Sereno
Sereno
 Vento da N
Vento: N 7 km/h
Temperatura: 12°C
P.to Rugiada: 11°C
Umidità: 94%
Barometro: 1017 hPa
Summary: Sereno
Visibility: greater than 10 km
2019/05/22 00:55 LIED 220055Z 35004KT CAVOK 12/11 Q1017
 
LIEE - Cagliari-Elmas(A, Italy
Dati ricevuti: 22/05/2019 03:20
Sereno
Sereno
 Vento da NNO
Vento: NNO 13 km/h
Temperatura: 12°C
P.to Rugiada: 10°C
Umidità: 88%
Barometro: 1017 hPa
Summary: Sereno
Visibility: greater than 10 km
2019/05/22 01:20 LIEE 220120Z 33007KT CAVOK 12/10 Q1017
LIEO - Olbia-Costa Smeralda, Italy
Dati ricevuti: 22/05/2019 03:20
Sereno
Sereno
 Vento da SO
Vento: SO 15 km/h
Temperatura: 14°C
P.to Rugiada: 9°C
Umidità: 72%
Barometro: 1016 hPa
Summary: Sereno
Visibility: greater than 10 km
2019/05/22 01:20 LIEO 220120Z 23008KT CAVOK 14/09 Q1016
 
LIEA - Alghero, Italy
Dati ricevuti: 22/05/2019 03:20
Few Clouds
Few Clouds
 Vento da varies
Vento: varies 4 km/h
Temperatura: 12°C
P.to Rugiada: 11°C
Umidità: 94%
Barometro: 1017 hPa
Clouds: Few Clouds
Visibility: 10 km
Cloud details: Few Clouds 305 m
2019/05/22 01:20 LIEA 220120Z VRB02KT 9999 FEW010 12/11 Q1017
LICA - Catanzaro-Lamezia Terme, Italy
Dati ricevuti: 22/05/2019 02:50
Molto nuvoloso
Molto nuvoloso
 Vento da calm
Vento: Calma
Temperatura: 13°C
P.to Rugiada: 12°C
Umidità: 94%
Barometro: 1017 hPa
Clouds: Molto nuvoloso
Visibility: 10 km
Cloud details: Few Clouds 305 m
Molto nuvoloso 610 m
2019/05/22 00:50 LICA 220050Z 00000KT 9999 FEW010 BKN020 13/12 Q1017
 
LIBQ - Cosenza-Monte Scuro, Italy
Dati ricevuti: 22/05/2019 02:55
Molto nuvoloso
Molto nuvoloso
 Vento da O
Vento: O 41 km/h
Temperatura: 5°C
Temperatura del Vento: -1°C
P.to Rugiada: -1°C
Umidità: 66%
Barometro: 1017 hPa
Clouds: Molto nuvoloso
Visibility: 10 km
Cloud details: Molto nuvoloso 610 m
2019/05/22 00:55 LIBQ 220055Z 26022KT 9999 BKN020 05/M01 Q1017
LICR - Reggio Calabria, Italy
Dati ricevuti: 21/05/2019 23:50
Non Attivo
Sereno
Sereno
 Vento da NE
Vento: NE 13 km/h
Temperatura: 16°C
P.to Rugiada: 5°C
Umidità: 48%
Barometro: 1018 hPa
Summary: Sereno
Visibility: greater than 10 km
2019/05/21 21:50 LICR 212150Z 04007KT CAVOK 16/05 Q1018
 
LIBV - Bari-Gioia Del Colle, Italy
Dati ricevuti: 22/05/2019 01:55
Non Attivo
Sereno
Sereno
 Vento da S
Vento: S 7 km/h
Temperatura: 10°C
Temperatura del Vento: 9°C
P.to Rugiada: 7°C
Umidità: 82%
Barometro: 1015 hPa
Summary: Sereno
Visibility: greater than 10 km
2019/05/21 23:55 LIBV 212355Z 18004KT CAVOK 10/07 Q1015
LIBD - Bari-Palese Macchie, Italy
Dati ricevuti: 22/05/2019 03:20
Sereno
Sereno
 Vento da SO
Vento: SO 7 km/h
Temperatura: 13°C
P.to Rugiada: 8°C
Umidità: 72%
Barometro: 1015 hPa
Summary: Sereno
Visibility: greater than 10 km
2019/05/22 01:20 LIBD 220120Z 23004KT CAVOK 13/08 Q1015
 
LIBR - Brindisi-Casale, Italy
Dati ricevuti: 22/05/2019 02:50
Sereno
Sereno
 Vento da SO
Vento: SO 13 km/h
Temperatura: 14°C
P.to Rugiada: 9°C
Umidità: 72%
Barometro: 1015 hPa
Summary: Sereno
Visibility: greater than 10 km
2019/05/22 00:50 LIBR 220050Z 23007KT CAVOK 14/09 Q1015
LIRT - Trevico, Italy
Dati ricevuti: 21/05/2019 19:55
Non Attivo
Parz. nuvoloso
Parz. nuvoloso
 Vento da O
Vento: O 20 km/h, Raffica: 39 km/h
Temperatura: 11°C
P.to Rugiada: 2°C
Umidità: 54%
Barometro: 1017 hPa
Clouds: Parz. nuvoloso
Visibility: 10 km
Cloud details: Parz. nuvoloso 244 m
2019/05/21 17:55 LIRT 211755Z 26011G21KT 190V320 9999 SCT008 11/02 Q1017
 
LICB - Comiso, Italy
Dati ricevuti: 21/05/2019 22:50
Non Attivo
Sereno
Sereno
 Vento da NE
Vento: NE 6 km/h
Temperatura: 16°C
P.to Rugiada: 9°C
Umidità: 63%
Barometro: 1018 hPa
Summary: Sereno
Visibility: greater than 10 km
2019/05/21 20:50 LICB 212050Z 05003KT CAVOK 16/09 Q1018
LICL - Gela, Italy
Dati ricevuti: 21/05/2019 19:55
Non Attivo
Sereno
Sereno
 Vento da O
Vento: O 13 km/h
Temperatura: 18°C
P.to Rugiada: 9°C
Umidità: 56%
Barometro: 1015 hPa
Summary: Sereno
Visibility: greater than 10 km
2019/05/21 17:55 LICL 211755Z 27007KT CAVOK 18/09 Q1015 RMK BKN SCT120 BKN200 QUK 2 QUL 1 W VIS MAR 18 KM VIS MIN 9999
 
LIBN - Lecce (it-Afb), Italy
Dati ricevuti: 22/05/2019 02:55
Sereno
Sereno
 Vento da SO
Vento: SO 4 km/h
Temperatura: 12°C
P.to Rugiada: 11°C
Umidità: 94%
Barometro: 1016 hPa
Summary: Sereno
Visibility: greater than 10 km
2019/05/22 00:55 LIBN 220055Z 23002KT CAVOK 12/11 Q1016
LICJ - Palermo-Punta Raisi, Italy
Dati ricevuti: 22/05/2019 03:20
Sereno
Sereno
 Vento da SO
Vento: SO 11 km/h
Temperatura: 16°C
P.to Rugiada: 9°C
Umidità: 63%
Barometro: 1017 hPa
Summary: Sereno
Visibility: greater than 10 km
2019/05/22 01:20 LICJ 220120Z 22006KT CAVOK 16/09 Q1017
 
LICZ - Catania-Sigonella (nas), Italy
Dati ricevuti: 22/05/2019 02:55
Sereno
Sereno
 Vento da ONO
Vento: ONO 13 km/h
Temperatura: 14°C
P.to Rugiada: 14°C
Umidità: 100%
Barometro: 1019 hPa
Summary: Sereno
Visibility: greater than 10 km
2019/05/22 00:55 LICZ 220055Z 29007KT CAVOK 14/14 Q1019
LICC - Catania-Fontanarossa, Italy
Dati ricevuti: 22/05/2019 03:20
Sereno
Sereno
 Vento da SO
Vento: SO 7 km/h
Temperatura: 13°C
P.to Rugiada: 13°C
Umidità: 100%
Barometro: 1017 hPa
Summary: Sereno
Visibility: greater than 10 km
2019/05/22 01:20 LICC 220120Z 23004KT 190V260 CAVOK 13/13 Q1017
 
LICT - Trapani-Birgi (a, Italy
Dati ricevuti: 22/05/2019 02:55
Sereno
Sereno
 Vento da ESE
Vento: ESE 9 km/h
Temperatura: 15°C
P.to Rugiada: 13°C
Umidità: 88%
Barometro: 1017 hPa
Summary: Sereno
Visibility: greater than 10 km
2019/05/22 00:55 LICT 220055Z 11005KT CAVOK 15/13 Q1017
LICD - Agrigento-Lampedusa, Italy
Dati ricevuti: 22/05/2019 02:50
Few Clouds
Few Clouds
 Vento da O
Vento: O 7 km/h
Temperatura: 17°C
P.to Rugiada: 15°C
Umidità: 88%
Barometro: 1018 hPa
Clouds: Few Clouds
Visibility: 10 km
Cloud details: Few Clouds 7010 m
2019/05/22 00:50 LICD 220050Z AUTO 27004KT 9999 FEW230/// 17/15 Q1018
 
LICG - Pantelleria(It-A, Italy
Dati ricevuti: 21/05/2019 19:50
Non Attivo
Sereno
Sereno
 Vento da S
Vento: S 11 km/h
Temperatura: 18°C
P.to Rugiada: 8°C
Umidità: 52%
Barometro: 1017 hPa
Summary: Sereno
Visibility: greater than 10 km
2019/05/21 17:50 LICG 211750Z 18006KT CAVOK 18/08 Q1017
LIPX - Villafranca(Cv/M, Italy
Dati ricevuti: 22/05/2019 03:20
Mist, Parz. nuvoloso
Mist, Parz. nuvoloso
 Vento da ONO
Vento: ONO 6 km/h
Temperatura: 12°C
P.to Rugiada: 12°C
Umidità: 100%
Barometro: 1012 hPa
Summary: Mist
Clouds: Parz. nuvoloso
Visibility: 2 km
Cloud details: Parz. nuvoloso 914 m
2019/05/22 01:20 LIPX 220120Z 30003KT 2000 BR SCT030 12/12 Q1012
 
LIPO - Brescia/Montichiari, Italy
Dati ricevuti: 22/05/2019 02:50
Molto nuvoloso
Molto nuvoloso
 Vento da NE
Vento: NE 2 km/h
Temperatura: 13°C
P.to Rugiada: 13°C
Umidità: 100%
Barometro: 1012 hPa
Clouds: Molto nuvoloso
Visibility: 10 km
Cloud details: Molto nuvoloso 1829 m
2019/05/22 00:50 LIPO 220050Z 04001KT 9999 BKN060 13/13 Q1012
LIPL - Ghedi (it-Afb), Italy
Dati ricevuti: 22/05/2019 02:55
Mist, Parz. nuvoloso
Mist, Parz. nuvoloso
 Vento da ENE
Vento: ENE 4 km/h
Temperatura: 13°C
P.to Rugiada: 11°C
Umidità: 88%
Barometro: 1011 hPa
Summary: Mist
Clouds: Parz. nuvoloso
Visibility: 2 km
2019/05/22 00:55 LIPL 220055Z 07002KT 2000 BR NSC 13/11 Q1011
 
LIMP - Parma, Italy
Dati ricevuti: 21/05/2019 20:50
Non Attivo
Molto nuvoloso
Molto nuvoloso
 Vento da SO
Vento: SO 17 km/h
Temperatura: 18°C
P.to Rugiada: 10°C
Umidità: 60%
Barometro: 1011 hPa
Clouds: Molto nuvoloso
Visibility: 10 km
Cloud details: Parz. nuvoloso 914 m
Molto nuvoloso 1524 m
2019/05/21 18:50 LIMP 211850Z 22009KT 9999 SCT030 BKN050 18/10 Q1011
LIMS - Piacenza (it-Afb, Italy
Dati ricevuti: 21/05/2019 19:55
Non Attivo
Temporale, Few clouds
Temporale, Few clouds
 Vento da OSO
Vento: OSO 19 km/h
Temperatura: 21°C
P.to Rugiada: 12°C
Umidità: 57%
Barometro: 1008 hPa
Summary: Temporale
Clouds: Few Clouds
Visibility: 10 km
Cloud details: Few Clouds 1219 m
2019/05/21 17:55 LIMS 211755Z 24010KT 9999 TS FEW040CB 21/12 Q1008
 
LIPF - Ferrara (aut), Italy
Dati ricevuti: 21/05/2019 19:55
Non Attivo
Molto nuvoloso
Molto nuvoloso
 Vento da ENE
Vento: ENE 7 km/h
Temperatura: 21°C
P.to Rugiada: 16°C
Umidità: 73%
Barometro: 1009 hPa
Clouds: Molto nuvoloso
Visibility: 10 km
Cloud details: Molto nuvoloso 914 m
2019/05/21 17:55 LIPF 211755Z 07004KT 9999 BKN030 21/16 Q1009
LIPE - Bologna/Borgo (a, Italy
Dati ricevuti: 22/05/2019 03:20
Sereno
Sereno
 Vento da S
Vento: S 6 km/h
Temperatura: 13°C
P.to Rugiada: 9°C
Umidità: 77%
Barometro: 1012 hPa
Summary: Sereno
Visibility: greater than 10 km
2019/05/22 01:20 LIPE 220120Z 19003KT CAVOK 13/09 Q1012
 
LIPU - Padova (civ/It-A, Italy
Dati ricevuti: 21/05/2019 08:00
Non Attivo
Parz. nuvoloso
Parz. nuvoloso
 Vento da varies
Vento: varies 6 km/h
Temperatura: 14°C
P.to Rugiada: 14°C
Umidità: 100%
Barometro: 1007 hPa
Clouds: Parz. nuvoloso
Visibility: 10 km
Cloud details: Parz. nuvoloso 1219 m
2019/05/21 06:00 LIPU 210600Z VRB03KT 9999 SCT040 14/14 Q1007
LIME - Bergamo/Orio Ser, Italy
Dati ricevuti: 22/05/2019 03:20
Sereno
Sereno
 Vento da ONO
Vento: ONO 6 km/h
Temperatura: 13°C
P.to Rugiada: 12°C
Umidità: 94%
Barometro: 1012 hPa
Summary: Sereno
Visibility: greater than 10 km
2019/05/22 01:20 LIME 220120Z 30003KT 260V360 CAVOK 13/12 Q1012 NOSIG
 
LIMT - Cisa Pass, Italy
Dati ricevuti: 13/04/2018 12:55
Non Attivo
Nebbia
Nebbia
 Vento da SSO
Vento: SSO 15 km/h
Temperatura: 6°C
Temperatura del Vento: 3°C
P.to Rugiada: 4°C
Umidità: 87%
Barometro: 1013 hPa
Summary: Nebbia
Visibility: 0 km
2018/04/13 10:55 LIMT 131055Z 20008KT 0000 FG VV/// 06/04 Q1013 RMK MON INVIS VAL INVIS VIS MIN 0000
LIVC - Cimone Mountain, Italy
Dati ricevuti: 22/05/2019 01:55
Non Attivo
Sereno
Sereno
 Vento da SO
Vento: SO 22 km/h
Temperatura: 3°C
Temperatura del Vento: -2°C
P.to Rugiada: 0°C
Umidità: 81%
Barometro: 1017 hPa
Summary: Sereno
Visibility: greater than 10 km
2019/05/21 23:55 LIVC 212355Z 23012KT CAVOK 03/M00 Q1017
 
LIVP - Paganella Mounta, Italy
Dati ricevuti: 22/05/2019 02:55
Nebbia
Nebbia
 Vento da calm
Vento: Calma
Temperatura: 4°C
P.to Rugiada: 3°C
Umidità: 93%
Barometro: 1014 hPa
Summary: Nebbia
Visibility: 0 km
2019/05/22 00:55 LIVP 220055Z 00000KT 0000 FG VV/// 04/03 Q1014
LIML - Milano/Linate, Italy
Dati ricevuti: 22/05/2019 03:20
Sereno
Sereno
 Vento da ONO
Vento: ONO 6 km/h
Temperatura: 15°C
P.to Rugiada: 11°C
Umidità: 77%
Barometro: 1013 hPa
Summary: Sereno
Visibility: greater than 10 km
2019/05/22 01:20 LIML 220120Z 29003KT 260V330 CAVOK 15/11 Q1013 NOSIG
 
LIPS - Istrana (it-Afb), Italy
Dati ricevuti: 22/05/2019 02:55
Molto nuvoloso
Molto nuvoloso
 Vento da NE
Vento: NE 7 km/h
Temperatura: 14°C
P.to Rugiada: 13°C
Umidità: 94%
Barometro: 1012 hPa
Clouds: Molto nuvoloso
Visibility: 10 km
Cloud details: Molto nuvoloso 1067 m
2019/05/22 00:55 LIPS 220055Z 04004KT 9999 BKN035 14/13 Q1012
LIPH - Treviso(Civ/It-A, Italy
Dati ricevuti: 22/05/2019 03:20
Coperto
Coperto
 Vento da N
Vento: N 6 km/h
Temperatura: 15°C
P.to Rugiada: 14°C
Umidità: 94%
Barometro: 1012 hPa
Clouds: Coperto
Visibility: 10 km
Cloud details: Coperto 1097 m
2019/05/22 01:20 LIPH 220120Z AUTO 01003KT 9999 OVC036/// 15/14 Q1012
 
LIPZ - Venezia/Tessera, Italy
Dati ricevuti: 22/05/2019 03:20
Molto nuvoloso
Molto nuvoloso
 Vento da NNE
Vento: NNE 6 km/h
Temperatura: 15°C
P.to Rugiada: 14°C
Umidità: 94%
Barometro: 1012 hPa
Clouds: Molto nuvoloso
Visibility: 8 km
Cloud details: Molto nuvoloso 1372 m
2019/05/22 01:20 LIPZ 220120Z 02003KT 350V050 8000 BKN045 15/14 Q1012 NOSIG
LIQW - Sarzana/Luni, Italy
Dati ricevuti: 21/05/2019 22:55
Non Attivo
Molto nuvoloso
Molto nuvoloso
 Vento da ENE
Vento: ENE 6 km/h
Temperatura: 16°C
P.to Rugiada: 15°C
Umidità: 94%
Barometro: 1015 hPa
Clouds: Molto nuvoloso
Visibility: 8 km
Cloud details: Molto nuvoloso 610 m
2019/05/21 20:55 LIQW 212055Z 06003KT 8000 BKN020 16/15 Q1015
 
LIVR - Rolle Pass, Italy
Dati ricevuti: 22/05/2019 01:55
Non Attivo
Nebbia
Nebbia
 Vento da NNO
Vento: NNO 15 km/h
Temperatura: 2°C
Temperatura del Vento: -2°C
P.to Rugiada: 0°C
Umidità: 87%
Barometro: 1015 hPa
Summary: Nebbia
Visibility: 0 km
2019/05/21 23:55 LIVR 212355Z 34008KT 0100 FG VV/// 02/M00 Q1015
LIPK - Forli (civ/It-Af, Italy
Dati ricevuti: 21/05/2019 17:50
Non Attivo
Sereno
Sereno
 Vento da OSO
Vento: OSO 24 km/h
Temperatura: 22°C
P.to Rugiada: 13°C
Umidità: 57%
Barometro: 1010 hPa
Summary: Sereno
Visibility: greater than 10 km
2019/05/21 15:50 LIPK 211550Z 24013KT CAVOK 22/13 Q1010
 
LIMV - Giovi Pass, Italy
Dati ricevuti: 21/05/2019 19:55
Non Attivo
Molto nuvoloso
Molto nuvoloso
 Vento da varies
Vento: varies 0 km/h
Temperatura: 13°C
P.to Rugiada: 12°C
Umidità: 94%
Barometro: 1013 hPa
Clouds: Molto nuvoloso
Visibility: 10 km
Cloud details: Molto nuvoloso 183 m
2019/05/21 17:55 LIMV 211755Z /////KT 9999 BKN006 13/12 Q1013
LIPB - Bolzano(Civ/It-A, Italy
Dati ricevuti: 21/05/2019 22:50
Non Attivo
Parz. nuvoloso
Parz. nuvoloso
 Vento da calm
Vento: Calma
Temperatura: 13°C
P.to Rugiada: 12°C
Umidità: 94%
Barometro: 1012 hPa
Clouds: Parz. nuvoloso
Visibility: 10 km
Cloud details: Few Clouds 1219 m
Parz. nuvoloso 3048 m
2019/05/21 20:50 LIPB 212050Z 00000KT 9999 FEW040 SCT100 13/12 Q1012
 
LIVD - Bolzano-Dobbiaco, Italy
Dati ricevuti: 21/05/2019 19:55
Non Attivo
Parz. nuvoloso
Parz. nuvoloso
 Vento da varies
Vento: varies 0 km/h
Temperatura: 13°C
P.to Rugiada: 6°C
Umidità: 63%
Barometro: 1012 hPa
Clouds: Parz. nuvoloso
Visibility: 10 km
Cloud details: Parz. nuvoloso 914 m
2019/05/21 17:55 LIVD 211755Z /////KT 9999 SCT030 13/06 Q1012
LIVE - Bolzano-Passo Resia, Italy
Dati ricevuti: 22/05/2019 02:55
Sereno
Sereno
 Vento da N
Vento: N 9 km/h
Temperatura: 7°C
Temperatura del Vento: 6°C
P.to Rugiada: 4°C
Umidità: 81%
Barometro: 1016 hPa
Summary: Sereno
Visibility: greater than 10 km
2019/05/22 00:55 LIVE 220055Z 01005KT CAVOK 07/04 Q1016
 
LIMH - Aosta-Pian Rosa (mtn T, Italy
Dati ricevuti: 22/05/2019 02:55
Sereno
Sereno
 Vento da varies
Vento: varies 0 km/h
Temperatura: -6°C
P.to Rugiada: -7°C
Umidità: 93%
Barometro: 1019 hPa
Summary: Sereno
Visibility: greater than 10 km
2019/05/22 00:55 LIMH 220055Z /////KT CAVOK M06/M07 Q1019
LIMZ - Cuneo/Levaldigi, Italy
Dati ricevuti: 21/05/2019 20:50
Non Attivo
Few Clouds
Few Clouds
 Vento da S
Vento: S 7 km/h
Temperatura: 14°C
P.to Rugiada: 11°C
Umidità: 82%
Barometro: 1011 hPa
Clouds: Few Clouds
Visibility: 10 km
Cloud details: Few Clouds 610 m
2019/05/21 18:50 LIMZ 211850Z 19004KT 150V230 9999 FEW020 14/11 Q1011
 
LIMK - Torino-Bric Della Croce, Italy
Dati ricevuti: 22/05/2019 02:55
Few Clouds
Few Clouds
 Vento da S
Vento: S 9 km/h
Temperatura: 12°C
P.to Rugiada: 12°C
Umidità: 100%
Barometro: 1013 hPa
Clouds: Few Clouds
Visibility: 10 km
Cloud details: Few Clouds 610 m
2019/05/22 00:55 LIMK 220055Z 17005KT 9999 FEW020CB 12/12 Q1013
LIMN - Novara-Cameri (it-Afb), Italy
Dati ricevuti: 21/05/2019 19:55
Non Attivo
Sereno
Sereno
 Vento da S
Vento: S 19 km/h
Temperatura: 20°C
P.to Rugiada: 13°C
Umidità: 64%
Barometro: 1008 hPa
Summary: Sereno
Visibility: greater than 10 km
2019/05/21 17:55 LIMN 211755Z 18010KT 160V220 CAVOK 20/13 Q1008
 
LIPA - Pordenone-Aviano (it/Us-Af, Italy
Dati ricevuti: 21/05/2019 21:55
Non Attivo
Molto nuvoloso
Molto nuvoloso
 Vento da N
Vento: N 11 km/h
Temperatura: 14°C
P.to Rugiada: 12°C
Umidità: 88%
Barometro: 1012 hPa
Clouds: Molto nuvoloso
Visibility: 10 km
Cloud details: Parz. nuvoloso 610 m
Molto nuvoloso 1067 m
2019/05/21 19:55 LIPA 211955Z 01006KT 9999 SCT020 BKN035 14/12 Q1012
LIPI - Udine-Rivolto (it-Afb), Italy
Dati ricevuti: 21/05/2019 15:55
Non Attivo
Parz. nuvoloso
Parz. nuvoloso
 Vento da varies
Vento: varies 0 km/h
Temperatura: 16°C
P.to Rugiada: 13°C
Umidità: 83%
Barometro: 1010 hPa
Clouds: Parz. nuvoloso
Visibility: 10 km
Cloud details: Parz. nuvoloso 396 m
Parz. nuvoloso 762 m
2019/05/21 13:55 LIPI 211355Z /////KT 9999 SCT013 SCT025 16/13 Q1010
 
LIVO - Udine-Tarvisio, Italy
Dati ricevuti: 21/05/2019 19:55
Non Attivo
Molto nuvoloso
Molto nuvoloso
 Vento da ONO
Vento: ONO 9 km/h
Temperatura: 11°C
P.to Rugiada: 9°C
Umidità: 88%
Barometro: 1010 hPa
Clouds: Molto nuvoloso
Visibility: 10 km
Cloud details: Molto nuvoloso 762 m
2019/05/21 17:55 LIVO 211755Z 29005KT 9999 BKN025 11/09 Q1010
LIPQ - Trieste-Ronchi Dei Legionari, Italy
Dati ricevuti: 22/05/2019 03:20
Coperto
Coperto
 Vento da NNE
Vento: NNE 4 km/h
Temperatura: 14°C
P.to Rugiada: 13°C
Umidità: 94%
Barometro: 1012 hPa
Clouds: Coperto
Visibility: 10 km
Cloud details: Few Clouds 640 m
Coperto 1554 m
2019/05/22 01:20 LIPQ 220120Z AUTO 03002KT 9999 FEW021/// OVC051/// 14/13 Q1012
 
LIVT - Trieste, Italy
Dati ricevuti: 21/05/2019 19:55
Non Attivo
Molto nuvoloso
Molto nuvoloso
 Vento da ENE
Vento: ENE 6 km/h
Temperatura: 16°C
P.to Rugiada: 13°C
Umidità: 83%
Barometro: 1010 hPa
Clouds: Molto nuvoloso
Visibility: 10 km
Cloud details: Molto nuvoloso 1219 m
2019/05/21 17:55 LIVT 211755Z 06003KT 9999 BKN040 16/13 Q1010
LIRQ - Firenze/Peretola, Italy
Dati ricevuti: 22/05/2019 03:20
Few Clouds
Few Clouds
 Vento da ESE
Vento: ESE 7 km/h
Temperatura: 13°C
P.to Rugiada: 11°C
Umidità: 88%
Barometro: 1015 hPa
Clouds: Few Clouds
Visibility: 10 km
Cloud details: Few Clouds 1829 m
2019/05/22 01:20 LIRQ 220120Z 11004KT 9999 FEW060 13/11 Q1015
 
LIPK - Forli (civ/It-Af, Italy
Dati ricevuti: 21/05/2019 17:50
Non Attivo
Sereno
Sereno
 Vento da OSO
Vento: OSO 24 km/h
Temperatura: 22°C
P.to Rugiada: 13°C
Umidità: 57%
Barometro: 1010 hPa
Summary: Sereno
Visibility: greater than 10 km
2019/05/21 15:50 LIPK 211550Z 24013KT CAVOK 22/13 Q1010
LIRS - Grosseto (it-Afb, Italy
Dati ricevuti: 22/05/2019 02:55
Parz. nuvoloso
Parz. nuvoloso
 Vento da N
Vento: N 7 km/h
Temperatura: 13°C
P.to Rugiada: 11°C
Umidità: 88%
Barometro: 1015 hPa
Clouds: Parz. nuvoloso
Visibility: 10 km
Cloud details: Parz. nuvoloso 610 m
Parz. nuvoloso 762 m
2019/05/22 00:55 LIRS 220055Z 01004KT 9999 SCT020 SCT025 13/11 Q1015
 
LIRP - Pisa (civ/It-Afb, Italy
Dati ricevuti: 22/05/2019 03:15
Molto nuvoloso
Molto nuvoloso
 Vento da ESE
Vento: ESE 7 km/h
Temperatura: 11°C
P.to Rugiada: 11°C
Umidità: 100%
Barometro: 1015 hPa
Clouds: Molto nuvoloso
Visibility: 10 km
Cloud details: Molto nuvoloso 2438 m
2019/05/22 01:15 LIRP 220115Z 12004KT 9999 BKN080 11/11 Q1015 NOSIG
LIVF - Frontone, Italy
Dati ricevuti: 22/05/2019 02:55
Parz. nuvoloso
Parz. nuvoloso
 Vento da SE
Vento: SE 9 km/h
Temperatura: 13°C
P.to Rugiada: 7°C
Umidità: 67%
Barometro: 1012 hPa
Clouds: Parz. nuvoloso
Visibility: 10 km
Cloud details: Parz. nuvoloso 610 m
2019/05/22 00:55 LIVF 220055Z 14005KT 9999 SCT020 13/07 Q1012
 
LIPC - Cervia (it-Afb), Italy
Dati ricevuti: 22/05/2019 02:55
Sereno
Sereno
 Vento da SSO
Vento: SSO 11 km/h
Temperatura: 15°C
P.to Rugiada: 11°C
Umidità: 77%
Barometro: 1013 hPa
Summary: Sereno
Visibility: greater than 10 km
2019/05/22 00:55 LIPC 220055Z 21006KT CAVOK 15/11 Q1013
LIPR - Rimini (civ/It-A, Italy
Dati ricevuti: 22/05/2019 03:20
Molto nuvoloso
Molto nuvoloso
 Vento da S
Vento: S 7 km/h
Temperatura: 15°C
P.to Rugiada: 11°C
Umidità: 77%
Barometro: 1013 hPa
Clouds: Molto nuvoloso
Visibility: 10 km
Cloud details: Molto nuvoloso 2896 m
2019/05/22 01:20 LIPR 220120Z AUTO 17004KT 9999 BKN095/// 15/11 Q1013
 
LIRX - Monte Calamita, Italy
Dati ricevuti: 21/05/2019 19:55
Non Attivo
Mist, Few clouds
Mist, Few clouds
 Vento da calm
Vento: Calma
Temperatura: 18°C
P.to Rugiada: 15°C
Umidità: 83%
Barometro: 1012 hPa
Summary: Mist
Clouds: Few Clouds
Visibility: 5 km
Cloud details: Few Clouds 30 m
2019/05/21 17:55 LIRX 211755Z 00000KT 5000 BR FEW001 18/15 Q1012
LIVM - Punta Marina/Rav, Italy
Dati ricevuti: 21/05/2019 19:55
Non Attivo
Sereno
Sereno
 Vento da varies
Vento: varies 6 km/h
Temperatura: 22°C
P.to Rugiada: 11°C
Umidità: 50%
Barometro: 1010 hPa
Summary: Sereno
Visibility: greater than 10 km
2019/05/21 17:55 LIVM 211755Z VRB03KT CAVOK 22/11 Q1010